Time;durP1;ratioP1;P1;durP2;ratioP2;P2;SDS_P1;SDS_P2;PMS_P1;PMS_P2;Temp;Humidity;BMP_temperature;BMP_pressure;BME280_temperature;BME280_humidity;BME280_pressure;Samples;Min_cycle;Max_cycle;Signal;HPM_P1;HPM_P2
2023/04/24 00:02:40;;;;;;;1.13;0.82;;;;;;;12.26;100.00;99744.06;6275219;28;20593;-78
2023/04/24 00:05:42;;;;;;;1.83;1.00;;;;;;;12.24;100.00;99741.56;6279768;28;20353;-78
2023/04/24 00:08:43;;;;;;;0.98;0.80;;;;;;;12.17;100.00;99742.97;6279780;28;20048;-77
2023/04/24 00:11:46;;;;;;;4.88;1.20;;;;;;;12.16;100.00;99736.88;6295121;28;20052;-77
2023/04/24 00:14:47;;;;;;;0.80;0.70;;;;;;;12.15;100.00;99731.72;6304481;28;20052;-77
2023/04/24 00:17:49;;;;;;;0.77;0.75;;;;;;;12.09;100.00;99740.09;6304243;28;20059;-78
2023/04/24 00:20:50;;;;;;;0.70;0.70;;;;;;;12.09;100.00;99732.19;6304327;28;20044;-77
2023/04/24 00:23:52;;;;;;;2.03;0.77;;;;;;;12.07;100.00;99736.72;6304134;28;20345;-78
2023/04/24 00:26:55;;;;;;;3.28;0.80;;;;;;;12.00;100.00;99739.00;6304225;28;20445;-78
2023/04/24 00:29:56;;;;;;;0.40;0.40;;;;;;;11.98;100.00;99743.53;6304132;28;20060;-77
2023/04/24 00:32:58;;;;;;;0.90;0.82;;;;;;;11.84;100.00;99744.56;6302160;28;20049;-78
2023/04/24 00:35:59;;;;;;;0.47;0.45;;;;;;;11.88;100.00;99743.38;6304002;28;20452;-79
2023/04/24 00:39:00;;;;;;;0.95;0.50;;;;;;;11.93;100.00;99738.59;6303725;28;20052;-78
2023/04/24 00:42:06;;;;;;;2.95;0.60;;;;;;;11.99;100.00;99741.72;6303933;28;20059;-78
2023/04/24 00:45:08;;;;;;;0.57;0.50;;;;;;;12.00;100.00;99743.44;6303729;28;20448;-77
2023/04/24 00:48:10;;;;;;;0.75;0.52;;;;;;;11.95;100.00;99737.69;6303478;28;20055;-78
2023/04/24 00:51:11;;;;;;;0.47;0.47;;;;;;;11.82;100.00;99728.06;6303729;28;20052;-78
2023/04/24 00:54:12;;;;;;;0.57;0.50;;;;;;;11.85;100.00;99733.06;6303834;28;20051;-77
2023/04/24 00:57:15;;;;;;;4.57;0.50;;;;;;;11.88;100.00;99724.13;6303538;28;20051;-78
2023/04/24 01:00:17;;;;;;;0.50;0.50;;;;;;;11.90;100.00;99723.06;6303058;28;20049;-77
2023/04/24 01:03:19;;;;;;;1.15;0.70;;;;;;;11.93;100.00;99724.59;6301907;28;20053;-77
2023/04/24 01:06:21;;;;;;;0.43;0.43;;;;;;;11.86;100.00;99729.50;6302642;28;20056;-77
2023/04/24 01:09:24;;;;;;;0.98;0.63;;;;;;;11.84;100.00;99726.13;6302976;28;20048;-77
2023/04/24 01:12:27;;;;;;;0.68;0.60;;;;;;;11.89;100.00;99729.25;6303179;28;20049;-77
2023/04/24 01:15:28;;;;;;;0.60;0.60;;;;;;;11.85;100.00;99729.59;6302238;28;20053;-78
2023/04/24 01:18:29;;;;;;;1.17;0.80;;;;;;;11.73;100.00;99726.06;6302535;28;20560;-77
2023/04/24 01:21:33;;;;;;;0.60;0.60;;;;;;;11.74;100.00;99722.50;6303226;28;20044;-77
2023/04/24 01:24:36;;;;;;;0.32;0.32;;;;;;;11.73;100.00;99723.44;6302976;28;20051;-77
2023/04/24 01:27:37;;;;;;;0.63;0.40;;;;;;;11.72;100.00;99729.66;6302540;28;20048;-77
2023/04/24 01:30:39;;;;;;;0.73;0.40;;;;;;;11.67;100.00;99724.75;6302849;28;20044;-77
2023/04/24 01:33:42;;;;;;;0.47;0.47;;;;;;;11.65;100.00;99725.81;6290953;28;20049;-78
2023/04/24 01:36:46;;;;;;;0.40;0.40;;;;;;;11.67;100.00;99731.78;6277764;28;20437;-77
2023/04/24 01:39:49;;;;;;;0.47;0.47;;;;;;;11.56;100.00;99739.63;6277360;28;20041;-77
2023/04/24 01:42:51;;;;;;;0.40;0.40;;;;;;;11.64;100.00;99737.28;6277895;28;20143;-77
2023/04/24 01:45:52;;;;;;;0.38;0.38;;;;;;;11.66;100.00;99732.75;6277559;28;20094;-77
2023/04/24 01:48:54;;;;;;;0.43;0.40;;;;;;;11.62;100.00;99732.13;6277230;28;20056;-77
2023/04/24 01:51:55;;;;;;;0.40;0.40;;;;;;;11.66;100.00;99730.94;6277344;28;20049;-78
2023/04/24 01:55:00;;;;;;;0.73;0.38;;;;;;;11.57;100.00;99726.34;6277505;28;20053;-78
2023/04/24 01:58:02;;;;;;;1.05;0.70;;;;;;;11.51;100.00;99716.28;6277139;28;20044;-78
2023/04/24 02:01:03;;;;;;;1.60;0.70;;;;;;;11.55;100.00;99722.19;6277564;28;20124;-78
2023/04/24 02:04:05;;;;;;;1.10;0.55;;;;;;;11.53;100.00;99721.44;6278271;28;20057;-77
2023/04/24 02:07:07;;;;;;;0.40;0.40;;;;;;;11.44;100.00;99730.84;6277101;28;20053;-77
2023/04/24 02:10:11;;;;;;;0.50;0.50;;;;;;;11.52;100.00;99730.28;6276510;28;20048;-77
2023/04/24 02:13:12;;;;;;;0.98;0.60;;;;;;;11.53;100.00;99722.28;6276729;28;20123;-77
2023/04/24 02:16:14;;;;;;;0.50;0.50;;;;;;;11.55;100.00;99722.19;6276914;28;20053;-77
2023/04/24 02:19:15;;;;;;;1.58;0.40;;;;;;;11.47;100.00;99728.00;6276724;28;20106;-77
2023/04/24 02:22:16;;;;;;;0.40;0.40;;;;;;;11.41;100.00;99715.31;6276882;28;20053;-77
2023/04/24 02:25:19;;;;;;;0.40;0.40;;;;;;;11.37;100.00;99722.56;6276223;28;20049;-77
2023/04/24 02:28:21;;;;;;;1.17;0.60;;;;;;;11.35;100.00;99719.19;6289764;28;20483;-77
2023/04/24 02:31:22;;;;;;;0.90;0.40;;;;;;;11.38;100.00;99715.50;6301152;28;20049;-77
2023/04/24 02:34:23;;;;;;;0.50;0.40;;;;;;;11.35;100.00;99721.00;6291686;28;20045;-77
2023/04/24 02:37:25;;;;;;;0.30;0.30;;;;;;;11.33;100.00;99726.38;6300170;28;20053;-76
2023/04/24 02:40:28;;;;;;;0.30;0.30;;;;;;;11.30;100.00;99726.59;6296187;28;20060;-77
2023/04/24 02:43:29;;;;;;;0.80;0.50;;;;;;;11.28;100.00;99723.25;6286540;28;20348;-77
2023/04/24 02:46:31;;;;;;;1.08;0.45;;;;;;;11.23;100.00;99721.91;6298002;28;20053;-76
2023/04/24 02:49:32;;;;;;;0.30;0.30;;;;;;;11.18;100.00;99725.69;6285257;28;20052;-77
2023/04/24 02:52:33;;;;;;;0.35;0.35;;;;;;;11.19;100.00;99723.91;6278014;28;20053;-77
2023/04/24 02:55:36;;;;;;;0.30;0.30;;;;;;;11.20;100.00;99719.50;6281798;28;20053;-77
2023/04/24 02:58:37;;;;;;;0.55;0.40;;;;;;;11.18;100.00;99728.34;6291602;28;20129;-77
2023/04/24 03:01:39;;;;;;;0.30;0.30;;;;;;;11.16;100.00;99716.22;6286532;28;20052;-76
2023/04/24 03:04:42;;;;;;;0.30;0.30;;;;;;;11.11;100.00;99711.31;6292930;28;20063;-77
2023/04/24 03:07:44;;;;;;;1.30;0.65;;;;;;;11.08;100.00;99713.31;6299895;28;20384;-77
2023/04/24 03:10:46;;;;;;;0.28;0.28;;;;;;;11.09;100.00;99715.84;6299958;28;20345;-77
2023/04/24 03:13:48;;;;;;;0.20;0.20;;;;;;;11.08;100.00;99710.69;6296223;28;20045;-77
2023/04/24 03:16:50;;;;;;;0.30;0.30;;;;;;;11.05;100.00;99721.44;6275127;28;20059;-77
2023/04/24 03:19:51;;;;;;;0.38;0.38;;;;;;;10.97;100.00;99715.88;6296022;28;20055;-77
2023/04/24 03:22:52;;;;;;;1.02;0.45;;;;;;;10.91;100.00;99714.53;6287744;28;20052;-77
2023/04/24 03:25:55;;;;;;;0.30;0.30;;;;;;;10.76;100.00;99715.59;6296877;28;20044;-77
2023/04/24 03:28:57;;;;;;;0.65;0.35;;;;;;;10.74;100.00;99714.88;6299565;28;20055;-77
2023/04/24 03:31:58;;;;;;;0.40;0.40;;;;;;;10.73;100.00;99711.44;6299941;28;20146;-77
2023/04/24 03:35:00;;;;;;;0.50;0.50;;;;;;;10.66;100.00;99715.41;6296202;28;20494;-77
2023/04/24 03:38:01;;;;;;;0.50;0.50;;;;;;;10.66;100.00;99711.00;6263042;28;20053;-76
2023/04/24 03:41:04;;;;;;;0.22;0.22;;;;;;;10.60;100.00;99708.81;6265442;28;20048;-77
2023/04/24 03:44:05;;;;;;;1.20;0.35;;;;;;;10.64;100.00;99714.69;6267877;28;20052;-77
2023/04/24 03:47:07;;;;;;;0.30;0.30;;;;;;;10.69;100.00;99714.38;6268340;28;20057;-77
2023/04/24 03:50:09;;;;;;;0.65;0.50;;;;;;;10.65;100.00;99711.13;6278960;28;20040;-77
2023/04/24 03:53:10;;;;;;;0.70;0.47;;;;;;;10.66;100.00;99715.41;6268783;28;20055;-77
2023/04/24 03:56:13;;;;;;;0.45;0.30;;;;;;;10.50;100.00;99706.94;6272794;28;20036;-77
2023/04/24 03:59:15;;;;;;;0.70;0.60;;;;;;;10.51;100.00;99708.63;6279824;28;20460;-77
2023/04/24 04:02:16;;;;;;;1.08;0.60;;;;;;;10.46;100.00;99719.44;6280920;28;20075;-77
2023/04/24 04:05:17;;;;;;;1.33;0.98;;;;;;;10.44;100.00;99713.44;6281981;28;20048;-77
2023/04/24 04:08:19;;;;;;;1.35;0.90;;;;;;;10.49;100.00;99719.25;6255329;28;20044;-77
2023/04/24 04:11:21;;;;;;;0.85;0.73;;;;;;;10.54;100.00;99714.50;6269956;28;20040;-77
2023/04/24 04:14:23;;;;;;;0.70;0.47;;;;;;;10.59;100.00;99709.78;6262993;28;20053;-77
2023/04/24 04:17:24;;;;;;;0.60;0.50;;;;;;;10.56;100.00;99714.38;6265722;28;20040;-77
2023/04/24 04:20:26;;;;;;;0.95;0.60;;;;;;;10.58;100.00;99710.72;6271132;28;20496;-77
2023/04/24 04:23:27;;;;;;;1.00;0.80;;;;;;;10.61;100.00;99704.41;6263122;28;20052;-77
2023/04/24 04:26:31;;;;;;;0.82;0.65;;;;;;;10.59;100.00;99701.88;6272385;28;20059;-77
2023/04/24 04:29:34;;;;;;;2.03;0.47;;;;;;;10.56;100.00;99709.13;6297017;28;20049;-77
2023/04/24 04:32:35;;;;;;;1.80;0.95;;;;;;;10.46;100.00;99711.56;6293277;28;20044;-77
2023/04/24 04:35:37;;;;;;;0.90;0.70;;;;;;;10.60;100.00;99713.22;6282582;28;20044;-77
2023/04/24 04:38:40;;;;;;;2.92;0.68;;;;;;;10.55;100.00;99721.44;6279885;28;20194;-77
2023/04/24 04:41:44;;;;;;;0.70;0.70;;;;;;;10.59;100.00;99725.53;6293828;28;20067;-76
2023/04/24 04:44:46;;;;;;;0.70;0.70;;;;;;;10.54;100.00;99722.38;6282533;28;20060;-75
2023/04/24 04:47:47;;;;;;;2.70;0.73;;;;;;;10.67;100.00;99727.59;6298863;28;20099;-76
2023/04/24 04:50:48;;;;;;;1.38;0.73;;;;;;;10.75;100.00;99720.03;6288976;28;20349;-77
2023/04/24 04:53:50;;;;;;;1.38;0.80;;;;;;;10.78;100.00;99721.63;6291101;28;20056;-77
2023/04/24 04:56:53;;;;;;;0.80;0.70;;;;;;;10.87;100.00;99716.53;6303214;28;20053;-77
2023/04/24 04:59:54;;;;;;;3.22;0.75;;;;;;;10.85;100.00;99721.03;6303286;28;20044;-77
2023/04/24 05:02:56;;;;;;;1.38;0.85;;;;;;;10.82;100.00;99713.41;6295097;28;20055;-77
2023/04/24 05:05:58;;;;;;;1.13;0.80;;;;;;;10.79;100.00;99713.59;6298125;28;20057;-77
2023/04/24 05:08:59;;;;;;;3.72;0.70;;;;;;;10.77;100.00;99704.16;6278100;28;20053;-77
2023/04/24 05:12:02;;;;;;;1.83;0.90;;;;;;;10.80;100.00;99717.06;6283678;28;20051;-77
2023/04/24 05:15:05;;;;;;;1.42;0.73;;;;;;;10.81;100.00;99708.22;6302917;28;20697;-77
2023/04/24 05:18:06;;;;;;;1.90;0.95;;;;;;;10.77;100.00;99706.81;6296718;28;20056;-77
2023/04/24 05:21:08;;;;;;;1.30;0.80;;;;;;;10.75;100.00;99708.69;6294414;28;20049;-77
2023/04/24 05:24:09;;;;;;;1.13;0.80;;;;;;;10.80;100.00;99702.13;6293449;28;20049;-76
2023/04/24 05:27:12;;;;;;;2.28;1.00;;;;;;;10.86;100.00;99714.88;6302715;28;20135;-77
2023/04/24 05:30:13;;;;;;;0.98;0.85;;;;;;;10.91;100.00;99722.44;6286716;28;20460;-77
2023/04/24 05:33:15;;;;;;;1.52;0.90;;;;;;;10.90;100.00;99729.47;6294479;28;20061;-77
2023/04/24 05:36:16;;;;;;;1.08;0.80;;;;;;;10.88;100.00;99736.63;6277517;28;20060;-76
2023/04/24 05:39:19;;;;;;;1.48;1.10;;;;;;;10.83;100.00;99746.63;6277446;28;20049;-77
2023/04/24 05:42:22;;;;;;;1.60;1.08;;;;;;;10.87;100.00;99739.34;6294134;28;20048;-77
2023/04/24 05:45:23;;;;;;;3.20;0.85;;;;;;;10.91;100.00;99741.66;6294110;28;20053;-77
2023/04/24 05:48:25;;;;;;;1.30;1.00;;;;;;;10.99;100.00;99756.03;6301849;28;20048;-77
2023/04/24 05:51:26;;;;;;;3.53;1.25;;;;;;;11.03;100.00;99763.59;6293677;28;20041;-77
2023/04/24 05:54:28;;;;;;;1.52;1.08;;;;;;;11.01;100.00;99762.88;6300062;28;20084;-77
2023/04/24 05:57:30;;;;;;;1.90;1.13;;;;;;;10.96;100.00;99759.75;6301893;28;20056;-77
2023/04/24 06:00:32;;;;;;;2.45;1.50;;;;;;;10.96;100.00;99761.53;6301429;28;20052;-76
2023/04/24 06:03:33;;;;;;;2.47;1.40;;;;;;;10.96;100.00;99767.63;6291422;28;20060;-81
2023/04/24 06:06:36;;;;;;;3.17;1.33;;;;;;;10.87;100.00;99761.22;6298008;28;20048;-83
2023/04/24 06:09:37;;;;;;;3.10;1.73;;;;;;;10.81;100.00;99771.31;6301694;28;20048;-76
2023/04/24 06:12:40;;;;;;;2.10;1.40;;;;;;;10.81;100.00;99768.69;6292346;28;20048;-80
2023/04/24 06:15:41;;;;;;;2.58;1.75;;;;;;;10.84;100.00;99774.56;6296536;28;20048;-81
2023/04/24 06:18:43;;;;;;;3.13;1.65;;;;;;;10.93;100.00;99781.81;6290025;28;20080;-81
2023/04/24 06:21:44;;;;;;;3.00;2.00;;;;;;;10.95;100.00;99775.63;6287988;28;20352;-81
2023/04/24 06:24:47;;;;;;;7.68;2.88;;;;;;;10.93;100.00;99787.06;6299476;28;20463;-83
2023/04/24 06:27:49;;;;;;;4.85;2.80;;;;;;;10.75;100.00;99793.59;6301053;28;20049;-82
2023/04/24 06:30:51;;;;;;;5.43;2.90;;;;;;;10.77;100.00;99785.63;6301204;28;20052;-79
2023/04/24 06:33:52;;;;;;;5.68;2.90;;;;;;;10.79;100.00;99783.72;6301134;28;20064;-80
2023/04/24 06:36:54;;;;;;;6.38;2.53;;;;;;;10.82;100.00;99778.28;6287164;28;20057;-79
2023/04/24 06:39:56;;;;;;;6.88;4.20;;;;;;;10.90;100.00;99786.44;6292441;28;20217;-82
2023/04/24 06:42:59;;;;;;;10.77;5.00;;;;;;;10.77;100.00;99783.84;6296151;28;20045;-80
2023/04/24 06:46:03;;;;;;;7.40;4.20;;;;;;;10.75;100.00;99779.63;6281568;28;20330;-79
2023/04/24 06:49:04;;;;;;;8.30;4.95;;;;;;;10.77;100.00;99786.47;6294433;28;20052;-82
2023/04/24 06:52:06;;;;;;;11.98;5.10;;;;;;;10.87;100.00;99795.41;6292551;28;20049;-81
2023/04/24 06:55:08;;;;;;;11.73;5.68;;;;;;;11.04;100.00;99780.22;6299890;28;20056;-80
2023/04/24 06:58:11;;;;;;;9.27;5.40;;;;;;;11.03;100.00;99792.50;6285585;28;20056;-84
2023/04/24 07:01:13;;;;;;;11.63;5.38;;;;;;;11.02;100.00;99792.63;6275928;28;20052;-82
2023/04/24 07:04:14;;;;;;;9.23;5.10;;;;;;;11.11;100.00;99798.06;6300140;28;20048;-80
2023/04/24 07:07:16;;;;;;;10.88;5.28;;;;;;;11.18;100.00;99793.25;6284397;28;20048;-81
2023/04/24 07:10:18;;;;;;;9.52;4.97;;;;;;;11.17;100.00;99781.88;6291779;28;20478;-82
2023/04/24 07:13:21;;;;;;;10.57;5.63;;;;;;;11.23;100.00;99792.91;6291361;28;20044;-84
2023/04/24 07:16:22;;;;;;;11.95;4.95;;;;;;;11.27;100.00;99791.75;6300169;28;20432;-79
2023/04/24 07:19:23;;;;;;;10.23;4.85;;;;;;;11.29;100.00;99782.78;6300265;28;20055;-83
2023/04/24 07:22:25;;;;;;;8.48;4.95;;;;;;;11.24;100.00;99778.81;6298215;28;20048;-82
2023/04/24 07:25:27;;;;;;;7.88;4.55;;;;;;;11.38;100.00;99786.53;6300804;28;20049;-82
2023/04/24 07:28:30;;;;;;;8.68;5.18;;;;;;;11.42;100.00;99799.38;6300156;28;20053;-82
2023/04/24 07:31:32;;;;;;;11.07;5.03;;;;;;;11.42;100.00;99795.91;6299952;28;20376;-82
2023/04/24 07:34:33;;;;;;;9.80;4.57;;;;;;;11.42;100.00;99796.72;6291864;28;20045;-83
2023/04/24 07:37:35;;;;;;;7.75;4.72;;;;;;;11.36;100.00;99791.09;6300101;28;20055;-81
2023/04/24 07:40:36;;;;;;;10.50;4.25;;;;;;;11.44;100.00;99799.25;6300324;28;20049;-81
2023/04/24 07:43:39;;;;;;;9.02;5.20;;;;;;;11.38;100.00;99800.53;6289489;28;20049;-82
2023/04/24 07:46:41;;;;;;;9.45;4.78;;;;;;;11.40;100.00;99797.81;6275082;28;20140;-83
2023/04/24 07:49:42;;;;;;;9.65;4.85;;;;;;;11.46;100.00;99810.50;6286534;28;20053;-82
2023/04/24 07:52:43;;;;;;;8.55;5.30;;;;;;;11.36;100.00;99802.44;6291688;28;20056;-82
2023/04/24 07:55:45;;;;;;;7.47;5.13;;;;;;;11.45;100.00;99808.84;6284425;28;20045;-83
2023/04/24 07:58:48;;;;;;;9.00;5.20;;;;;;;11.52;100.00;99814.50;6284058;28;20052;-82
2023/04/24 08:01:49;;;;;;;10.73;4.82;;;;;;;11.57;100.00;99813.19;6282923;28;20202;-86
2023/04/24 08:04:51;;;;;;;13.23;5.38;;;;;;;11.50;100.00;99813.78;6285754;28;20064;-82
2023/04/24 08:07:52;;;;;;;10.07;5.05;;;;;;;11.54;100.00;99810.81;6297488;28;20101;-82
2023/04/24 08:10:54;;;;;;;14.57;5.72;;;;;;;11.65;100.00;99812.66;6291466;28;20450;-81
2023/04/24 08:13:57;;;;;;;9.70;4.63;;;;;;;11.69;100.00;99822.00;6287880;28;20057;-79
2023/04/24 08:16:59;;;;;;;10.65;4.82;;;;;;;11.66;100.00;99816.94;6280055;28;20049;-81
2023/04/24 08:20:02;;;;;;;7.60;4.70;;;;;;;11.64;100.00;99821.50;6282285;28;20449;-80
2023/04/24 08:23:03;;;;;;;13.02;5.38;;;;;;;11.65;100.00;99831.91;6282859;28;20045;-76
2023/04/24 08:26:07;;;;;;;9.85;4.95;;;;;;;11.74;100.00;99830.41;6285429;28;20040;-82
2023/04/24 08:29:10;;;;;;;12.93;4.55;;;;;;;11.68;100.00;99829.06;6302057;28;20436;-83
2023/04/24 08:32:11;;;;;;;9.20;4.32;;;;;;;11.68;100.00;99839.59;6287101;28;20048;-82
2023/04/24 08:35:12;;;;;;;9.73;4.50;;;;;;;11.67;100.00;99837.03;6295617;28;20052;-84
2023/04/24 08:38:14;;;;;;;10.88;4.68;;;;;;;11.72;100.00;99840.22;6303241;28;20048;-83
2023/04/24 08:41:16;;;;;;;11.95;5.28;;;;;;;11.72;100.00;99845.47;6296780;28;20045;-83
2023/04/24 08:44:20;;;;;;;10.63;4.07;;;;;;;11.71;100.00;99841.16;6302755;28;20080;-83
2023/04/24 08:47:24;;;;;;;7.88;4.53;;;;;;;11.73;100.00;99844.53;6294081;28;20049;-83
2023/04/24 08:50:26;;;;;;;12.40;4.93;;;;;;;11.80;100.00;99848.38;6294971;28;20059;-81
2023/04/24 08:53:27;;;;;;;8.15;4.32;;;;;;;11.67;100.00;99834.41;6297242;28;20368;-83
2023/04/24 08:56:30;;;;;;;7.32;4.35;;;;;;;11.74;100.00;99843.56;6278293;28;20044;-82
2023/04/24 08:59:36;;;;;;;6.70;4.10;;;;;;;11.87;100.00;99839.13;6288749;28;20056;-81
2023/04/24 09:02:39;;;;;;;8.23;4.80;;;;;;;11.99;100.00;99841.78;6286531;28;20407;-83
2023/04/24 09:05:45;;;;;;;8.70;4.75;;;;;;;11.97;100.00;99841.91;6292051;28;20049;-81
2023/04/24 09:08:49;;;;;;;9.15;4.35;;;;;;;11.95;100.00;99835.09;6277927;28;20045;-83
2023/04/24 09:11:50;;;;;;;15.68;4.90;;;;;;;12.05;100.00;99836.09;6281300;28;20047;-84
2023/04/24 09:14:54;;;;;;;6.25;4.10;;;;;;;12.14;100.00;99823.06;6276909;28;20049;-80
2023/04/24 09:17:56;;;;;;;9.00;4.88;;;;;;;12.08;100.00;99835.84;6282172;28;20048;-81
2023/04/24 09:20:58;;;;;;;10.30;3.88;;;;;;;12.03;100.00;99846.72;6288362;28;20060;-81
2023/04/24 09:24:00;;;;;;;10.88;3.50;;;;;;;11.97;100.00;99838.44;6298498;28;20045;-82
2023/04/24 09:27:02;;;;;;;6.93;4.13;;;;;;;11.98;100.00;99835.69;6303236;28;20048;-81
2023/04/24 09:30:07;;;;;;;10.50;3.80;;;;;;;11.89;100.00;99846.91;6295965;28;20136;-84
2023/04/24 09:33:13;;;;;;;14.82;3.17;;;;;;;11.91;100.00;99834.47;6300524;28;20352;-82
2023/04/24 09:36:18;;;;;;;8.27;3.67;;;;;;;11.85;100.00;99837.53;6285421;28;20044;-82
2023/04/24 09:39:20;;;;;;;7.13;3.78;;;;;;;11.77;100.00;99824.94;6301331;28;20067;-82
2023/04/24 09:42:25;;;;;;;10.75;4.00;;;;;;;11.81;100.00;99843.94;6294241;28;20056;-82
2023/04/24 09:45:36;;;;;;;6.32;3.55;;;;;;;11.81;100.00;99841.31;6277688;28;20053;-83
2023/04/24 09:48:38;;;;;;;4.55;3.13;;;;;;;11.89;100.00;99839.00;6293579;28;20045;-81
2023/04/24 09:51:40;;;;;;;6.43;3.47;;;;;;;11.91;100.00;99840.56;6280178;28;20045;-80
2023/04/24 09:54:41;;;;;;;7.25;3.22;;;;;;;12.13;100.00;99842.47;6291618;28;20124;-81
2023/04/24 09:57:54;;;;;;;5.63;3.67;;;;;;;12.22;100.00;99856.75;6296859;28;20041;-81
2023/04/24 10:00:57;;;;;;;5.05;2.63;;;;;;;12.24;100.00;99840.81;6302376;28;20045;-85
2023/04/24 10:03:58;;;;;;;4.07;2.70;;;;;;;12.39;100.00;99843.13;6302625;28;20049;-87
2023/04/24 10:07:01;;;;;;;6.10;2.95;;;;;;;12.61;100.00;99862.59;6297581;28;20053;-86
2023/04/24 10:10:02;;;;;;;3.50;2.38;;;;;;;12.44;100.00;99850.69;6299603;28;20595;-86
2023/04/24 10:13:04;;;;;;;5.72;2.80;;;;;;;12.35;100.00;99852.25;6289668;28;20045;-85
2023/04/24 10:16:08;;;;;;;2.97;1.95;;;;;;;12.35;100.00;99846.97;6301996;28;20348;-84
2023/04/24 10:19:12;;;;;;;5.13;2.45;;;;;;;12.26;100.00;99859.97;6293646;28;20056;-89
2023/04/24 10:22:16;;;;;;;3.53;2.20;;;;;;;12.22;100.00;99861.16;6285981;28;20464;-81
2023/04/24 10:25:20;;;;;;;4.00;2.28;;;;;;;12.12;100.00;99861.84;6285857;28;20060;-84
2023/04/24 10:28:22;;;;;;;3.22;2.30;;;;;;;11.91;100.00;99871.34;6293897;28;20106;-81
2023/04/24 10:31:26;;;;;;;2.97;2.08;;;;;;;11.76;100.00;99849.53;6276953;28;20429;-82
2023/04/24 10:34:28;;;;;;;2.70;2.20;;;;;;;11.80;100.00;99863.31;6286564;28;20052;-88
2023/04/24 10:37:37;;;;;;;2.30;1.90;;;;;;;11.80;100.00;99847.53;6285109;28;20052;-82
2023/04/24 10:40:39;;;;;;;5.75;1.60;;;;;;;11.81;100.00;99855.34;6290733;28;20049;-86
2023/04/24 10:43:40;;;;;;;3.05;1.80;;;;;;;11.74;100.00;99856.72;6292655;28;20448;-85
2023/04/24 10:46:46;;;;;;;2.22;1.40;;;;;;;11.80;100.00;99861.53;6292806;28;20049;-84
2023/04/24 10:49:51;;;;;;;1.95;1.60;;;;;;;11.61;100.00;99863.81;6280888;28;20045;-83
2023/04/24 10:52:54;;;;;;;4.70;1.55;;;;;;;11.74;100.00;99855.88;6280680;28;20044;-87
2023/04/24 10:56:00;;;;;;;1.73;1.52;;;;;;;11.86;100.00;99869.03;6289132;28;20048;-83
2023/04/24 10:59:02;;;;;;;3.20;2.03;;;;;;;11.90;100.00;99867.03;6278271;28;20077;-84
2023/04/24 11:02:09;;;;;;;2.55;1.60;;;;;;;12.06;100.00;99864.94;6298078;28;20052;-83
2023/04/24 11:05:11;;;;;;;1.98;1.60;;;;;;;12.07;100.00;99869.25;6277236;28;20130;-81
2023/04/24 11:08:14;;;;;;;1.60;1.40;;;;;;;12.13;100.00;99866.19;6294035;28;20125;-82
2023/04/24 11:11:17;;;;;;;2.35;1.77;;;;;;;12.13;100.00;99873.25;6280527;28;20128;-82
2023/04/24 11:14:19;;;;;;;2.13;1.42;;;;;;;12.06;100.00;99877.25;6289636;28;20051;-82
2023/04/24 11:17:30;;;;;;;3.45;1.40;;;;;;;12.08;100.00;99875.34;6291888;28;20097;-81
2023/04/24 11:20:32;;;;;;;1.50;1.10;;;;;;;12.03;100.00;99867.78;6300630;28;20044;-81
2023/04/24 11:23:37;;;;;;;4.40;1.90;;;;;;;12.01;100.00;99882.03;6296213;28;20048;-81
2023/04/24 11:26:40;;;;;;;3.85;1.75;;;;;;;11.87;100.00;99867.25;6297954;28;20055;-82
2023/04/24 11:29:49;;;;;;;1.50;1.25;;;;;;;11.71;100.00;99878.00;6277952;28;20040;-82
2023/04/24 11:32:52;;;;;;;2.45;1.42;;;;;;;11.68;100.00;99880.88;6283534;28;20049;-78
2023/04/24 11:35:54;;;;;;;2.55;1.27;;;;;;;11.74;100.00;99871.69;6298139;28;20052;-78
2023/04/24 11:38:55;;;;;;;1.50;1.17;;;;;;;11.81;100.00;99878.16;6299371;28;20141;-77
2023/04/24 11:42:03;;;;;;;1.77;1.25;;;;;;;11.73;100.00;99896.31;6299938;28;20045;-79
2023/04/24 11:45:09;;;;;;;2.55;1.38;;;;;;;11.61;100.00;99890.13;6291471;28;20048;-78
2023/04/24 11:48:12;;;;;;;2.20;1.55;;;;;;;11.63;100.00;99885.63;6299650;28;20048;-79
2023/04/24 11:51:14;;;;;;;7.30;1.52;;;;;;;11.71;100.00;99883.25;6298814;28;20139;-79
2023/04/24 11:54:15;;;;;;;3.28;1.83;;;;;;;11.66;100.00;99895.91;6278750;28;20057;-80
2023/04/24 11:57:17;;;;;;;2.05;1.58;;;;;;;11.61;100.00;99890.97;6280905;28;20048;-79
2023/04/24 12:00:21;;;;;;;2.30;1.80;;;;;;;11.51;100.00;99895.22;6286664;28;20041;-79
2023/04/24 12:03:24;;;;;;;1.58;1.40;;;;;;;11.44;100.00;99909.75;6292183;28;20122;-79
2023/04/24 12:06:25;;;;;;;1.73;1.58;;;;;;;11.35;100.00;99913.84;6293523;28;20045;-79
2023/04/24 12:09:26;;;;;;;1.70;1.40;;;;;;;11.27;100.00;99931.97;6291768;28;20056;-79
2023/04/24 12:12:28;;;;;;;3.72;1.35;;;;;;;11.27;100.00;99915.38;6294556;28;20036;-79
2023/04/24 12:15:30;;;;;;;1.38;1.27;;;;;;;11.27;100.00;99925.88;6293244;28;20049;-78
2023/04/24 12:18:33;;;;;;;1.40;1.30;;;;;;;11.28;100.00;99917.88;6289661;28;20048;-78
2023/04/24 12:21:34;;;;;;;1.90;1.63;;;;;;;11.28;100.00;99923.13;6289499;28;20040;-79
2023/04/24 12:24:36;;;;;;;1.77;1.58;;;;;;;11.01;100.00;99925.88;6290846;28;20052;-78
2023/04/24 12:27:37;;;;;;;2.05;1.23;;;;;;;10.86;100.00;99924.31;6292525;28;20048;-79
2023/04/24 12:30:42;;;;;;;1.58;1.30;;;;;;;10.84;100.00;99932.28;6294802;28;20048;-78
2023/04/24 12:33:45;;;;;;;1.42;1.30;;;;;;;11.00;100.00;99939.13;6297877;28;20063;-79
2023/04/24 12:36:47;;;;;;;1.95;1.52;;;;;;;10.95;100.00;99933.34;6289186;28;20069;-78
2023/04/24 12:40:02;;;;;;;1.98;1.40;;;;;;;10.72;100.00;99940.13;6287208;28;20061;-78
2023/04/24 12:43:14;;;;;;;1.23;1.13;;;;;;;10.65;100.00;99939.72;6278721;28;20418;-76
2023/04/24 12:46:15;;;;;;;1.15;0.90;;;;;;;10.66;100.00;99951.91;6287281;28;20048;-78
2023/04/24 12:49:18;;;;;;;0.82;0.82;;;;;;;10.61;100.00;99948.75;6277994;28;20049;-79
2023/04/24 12:52:20;;;;;;;1.13;1.00;;;;;;;10.57;100.00;99944.63;6281739;28;20041;-79
2023/04/24 12:55:22;;;;;;;1.27;0.90;;;;;;;10.48;100.00;99977.59;6286922;28;20048;-78
2023/04/24 12:58:23;;;;;;;0.70;0.70;;;;;;;10.11;100.00;99971.22;6285625;28;20048;-80
2023/04/24 13:01:24;;;;;;;0.50;0.50;;;;;;;10.01;100.00;99976.22;6293207;28;20055;-79
2023/04/24 13:04:27;;;;;;;0.40;0.40;;;;;;;9.85;100.00;99986.81;6301139;28;20056;-78
2023/04/24 13:07:28;;;;;;;0.88;0.38;;;;;;;9.70;100.00;99979.06;6292766;28;20488;-77
2023/04/24 13:10:30;;;;;;;0.70;0.52;;;;;;;9.60;100.00;100002.41;6299584;28;20048;-78
2023/04/24 13:13:31;;;;;;;0.52;0.52;;;;;;;9.62;100.00;99995.28;6301237;28;20044;-78
2023/04/24 13:16:33;;;;;;;2.90;0.93;;;;;;;9.47;100.00;99998.84;6303179;28;20049;-81
2023/04/24 13:19:38;;;;;;;1.17;1.00;;;;;;;9.45;100.00;100006.81;6286519;28;20057;-78
2023/04/24 13:22:39;;;;;;;1.90;1.00;;;;;;;9.27;100.00;100015.78;6294644;28;20345;-79
2023/04/24 13:25:42;;;;;;;2.47;1.33;;;;;;;9.10;100.00;100035.97;6285324;28;20059;-77
2023/04/24 13:28:43;;;;;;;2.85;1.50;;;;;;;8.99;100.00;100027.03;6290927;28;20353;-78
2023/04/24 13:31:45;;;;;;;3.45;2.10;;;;;;;8.95;100.00;100042.13;6281138;28;20426;-79
2023/04/24 13:34:48;;;;;;;2.72;1.52;;;;;;;8.78;100.00;100056.19;6302385;28;20120;-80
2023/04/24 13:37:49;;;;;;;3.25;1.77;;;;;;;8.72;100.00;100053.03;6294425;28;20053;-80
2023/04/24 13:40:50;;;;;;;2.20;1.70;;;;;;;8.88;100.00;100061.72;6288478;28;20053;-78
2023/04/24 13:43:52;;;;;;;3.03;2.08;;;;;;;8.77;100.00;100062.34;6281217;28;20041;-77
2023/04/24 13:46:56;;;;;;;2.22;1.40;;;;;;;8.73;100.00;100084.41;6277352;28;20144;-78
2023/04/24 13:49:59;;;;;;;4.93;2.17;;;;;;;8.66;100.00;100090.06;6276995;28;20056;-78
2023/04/24 13:53:01;;;;;;;4.20;2.35;;;;;;;8.61;100.00;100098.19;6297125;28;20489;-78
2023/04/24 13:56:02;;;;;;;5.72;2.05;;;;;;;8.60;100.00;100107.81;6291117;28;20471;-79
2023/04/24 13:59:04;;;;;;;5.07;2.90;;;;;;;8.41;100.00;100107.16;6301658;28;20178;-80
2023/04/24 14:02:05;;;;;;;3.28;2.35;;;;;;;8.22;100.00;100109.91;6298689;28;20049;-78
2023/04/24 14:05:10;;;;;;;4.65;2.42;;;;;;;8.21;100.00;100108.19;6290507;28;20056;-79
2023/04/24 14:08:12;;;;;;;3.28;2.17;;;;;;;8.19;100.00;100117.06;6290414;28;20175;-81